Time;durP1;ratioP1;P1;durP2;ratioP2;P2;SDS_P1;SDS_P2;PMS_P1;PMS_P2;Temp;Humidity;BMP_temperature;BMP_pressure;BME280_temperature;BME280_humidity;BME280_pressure;Samples;Min_cycle;Max_cycle;Signal;HPM_P1;HPM_P2
2023/08/27 00:01:52;;;;;;;40.55;37.70;;;18.50;99.90;;;;;;5031664;28;20048;-77
2023/08/27 00:04:18;;;;;;;54.92;51.67;;;18.40;99.90;;;;;;5032009;28;20033;-77
2023/08/27 00:06:44;;;;;;;26.20;24.38;;;18.40;99.90;;;;;;5031993;28;20032;-77
2023/08/27 00:09:10;;;;;;;27.42;25.58;;;18.40;99.90;;;;;;5032069;28;20037;-77
2023/08/27 00:11:36;;;;;;;28.48;26.42;;;18.40;99.90;;;;;;5032073;28;20041;-77
2023/08/27 00:14:02;;;;;;;23.30;21.70;;;18.40;99.90;;;;;;5032343;28;20033;-78
2023/08/27 00:16:29;;;;;;;19.75;18.42;;;18.30;99.90;;;;;;5031537;28;20036;-78
2023/08/27 00:18:55;;;;;;;20.70;19.17;;;18.30;99.90;;;;;;5030914;28;20033;-77
2023/08/27 00:21:21;;;;;;;26.85;24.90;;;18.30;99.90;;;;;;5030788;28;20064;-77
2023/08/27 00:23:47;;;;;;;36.10;34.13;;;18.30;99.90;;;;;;5032113;28;20022;-78
2023/08/27 00:26:13;;;;;;;31.25;29.45;;;18.30;99.90;;;;;;5031880;28;20044;-78
2023/08/27 00:28:39;;;;;;;32.95;30.98;;;18.20;99.90;;;;;;5032104;28;20411;-77
2023/08/27 00:31:05;;;;;;;30.60;28.50;;;18.20;99.90;;;;;;5031354;28;20041;-77
2023/08/27 00:33:32;;;;;;;28.95;27.00;;;18.20;99.90;;;;;;5031937;28;20033;-77
2023/08/27 00:35:58;;;;;;;24.48;23.08;;;18.20;99.90;;;;;;5031737;28;20025;-77
2023/08/27 00:38:24;;;;;;;24.95;23.35;;;18.20;99.90;;;;;;5032155;28;20364;-77
2023/08/27 00:40:50;;;;;;;23.95;22.42;;;18.20;99.90;;;;;;5031946;28;20045;-78
2023/08/27 00:43:16;;;;;;;38.88;36.72;;;18.10;99.90;;;;;;5032092;28;20025;-77
2023/08/27 00:45:42;;;;;;;53.00;50.30;;;18.10;99.90;;;;;;5031337;28;20046;-78
2023/08/27 00:48:08;;;;;;;30.08;28.23;;;18.10;99.90;;;;;;5029866;28;20049;-77
2023/08/27 00:50:34;;;;;;;34.88;32.55;;;18.10;99.90;;;;;;5031537;28;20030;-78
2023/08/27 00:53:00;;;;;;;67.78;64.30;;;18.00;99.90;;;;;;5030502;28;20045;-77
2023/08/27 00:55:26;;;;;;;50.10;47.25;;;18.00;99.90;;;;;;5031594;28;20034;-78
2023/08/27 00:57:53;;;;;;;65.63;62.35;;;18.00;99.90;;;;;;5032048;28;20038;-78
2023/08/27 01:00:20;;;;;;;69.75;66.13;;;17.90;99.90;;;;;;5030092;28;20036;-78
2023/08/27 01:02:48;;;;;;;46.95;44.38;;;17.90;99.90;;;;;;5030430;28;20395;-77
2023/08/27 01:05:14;;;;;;;54.05;51.28;;;17.90;99.90;;;;;;5031474;28;20052;-78
2023/08/27 01:08:12;;;;;;;50.50;47.58;;;17.90;99.90;;;;;;5031759;28;20405;-78
2023/08/27 01:10:55;;;;;;;31.17;29.38;;;17.90;99.90;;;;;;5029345;28;20040;-77
2023/08/27 01:13:28;;;;;;;22.45;20.90;;;17.90;99.90;;;;;;5035201;28;20029;-78
2023/08/27 01:15:57;;;;;;;33.20;31.27;;;17.90;99.90;;;;;;5033275;28;20026;-78
2023/08/27 01:18:23;;;;;;;27.13;25.63;;;17.90;99.90;;;;;;5033653;28;20030;-77
2023/08/27 01:20:50;;;;;;;29.23;27.42;;;17.80;99.90;;;;;;5033809;28;20026;-78
2023/08/27 01:23:16;;;;;;;40.72;38.53;;;17.70;99.90;;;;;;5034029;28;20034;-78
2023/08/27 01:25:47;;;;;;;27.27;25.58;;;17.60;99.90;;;;;;5034790;28;20044;-78
2023/08/27 01:28:20;;;;;;;;;;;17.50;99.90;;;;;;5034356;28;20060;-78
2023/08/27 01:31:03;;;;;;;27.40;25.85;;;17.50;99.90;;;;;;5032884;28;19909;-78
2023/08/27 01:33:29;;;;;;;25.95;24.15;;;17.50;99.90;;;;;;5033739;28;20038;-78
2023/08/27 01:35:57;;;;;;;42.15;39.92;;;17.50;99.90;;;;;;5033401;28;20395;-78
2023/08/27 01:38:23;;;;;;;78.60;74.53;;;17.50;99.90;;;;;;5034979;28;20021;-77
2023/08/27 01:40:49;;;;;;;89.70;85.15;;;17.50;99.90;;;;;;5033347;28;20033;-77
2023/08/27 01:43:15;;;;;;;47.83;45.22;;;17.50;99.90;;;;;;5034683;28;20387;-77
2023/08/27 01:45:41;;;;;;;29.63;27.88;;;17.50;99.90;;;;;;5034200;28;20029;-77
2023/08/27 01:48:07;;;;;;;32.28;30.58;;;17.50;99.90;;;;;;5034696;28;20029;-77
2023/08/27 01:50:33;;;;;;;29.30;27.50;;;17.60;99.90;;;;;;5034216;28;20032;-77
2023/08/27 01:52:59;;;;;;;64.10;60.67;;;17.60;99.90;;;;;;5034450;28;20045;-77
2023/08/27 01:55:25;;;;;;;49.42;46.58;;;17.60;99.90;;;;;;5034273;28;20391;-77
2023/08/27 01:57:52;;;;;;;54.17;51.38;;;17.60;99.90;;;;;;5033701;28;20030;-78
2023/08/27 02:00:20;;;;;;;49.25;46.63;;;17.60;99.90;;;;;;5025891;28;20497;-78
2023/08/27 02:02:46;;;;;;;39.47;36.97;;;17.60;99.90;;;;;;5027526;28;20048;-78
2023/08/27 02:05:12;;;;;;;66.10;62.78;;;17.60;99.90;;;;;;5032681;28;20382;-78
2023/08/27 02:07:39;;;;;;;65.55;62.28;;;17.70;99.90;;;;;;5032899;28;20025;-77
2023/08/27 02:10:09;;;;;;;73.68;69.78;;;17.70;99.90;;;;;;5032820;28;20032;-78
2023/08/27 02:12:35;;;;;;;46.10;43.47;;;17.70;99.90;;;;;;5032934;28;20048;-77
2023/08/27 02:15:06;;;;;;;22.73;21.38;;;17.80;99.90;;;;;;5032621;28;20025;-77
2023/08/27 02:17:32;;;;;;;34.35;32.38;;;17.80;99.90;;;;;;5012249;28;20038;-77
2023/08/27 02:19:58;;;;;;;56.35;53.38;;;17.80;99.90;;;;;;5013082;28;20097;-78
2023/08/27 02:22:25;;;;;;;44.88;42.50;;;17.70;99.90;;;;;;5012617;28;20390;-77
2023/08/27 02:24:52;;;;;;;27.65;26.15;;;17.70;99.90;;;;;;5012894;28;20045;-78
2023/08/27 02:27:18;;;;;;;43.58;41.00;;;17.60;99.90;;;;;;5012640;28;20026;-78
2023/08/27 02:29:44;;;;;;;37.08;35.10;;;17.60;99.90;;;;;;5012323;28;20038;-77
2023/08/27 02:32:10;;;;;;;35.83;33.70;;;17.50;99.90;;;;;;5012033;28;20040;-77
2023/08/27 02:34:36;;;;;;;29.73;28.08;;;17.60;99.90;;;;;;5012857;28;20030;-78
2023/08/27 02:37:02;;;;;;;27.70;25.70;;;17.60;99.90;;;;;;5012897;28;20037;-77
2023/08/27 02:39:28;;;;;;;27.48;25.70;;;17.50;99.90;;;;;;5013938;28;20033;-78
2023/08/27 02:41:54;;;;;;;25.25;23.77;;;17.40;99.90;;;;;;5013630;28;20038;-78
2023/08/27 02:44:20;;;;;;;16.35;15.13;;;17.40;99.90;;;;;;5013691;28;20501;-77
2023/08/27 02:46:47;;;;;;;70.32;66.60;;;17.40;99.90;;;;;;5013191;28;20030;-77
2023/08/27 02:49:13;;;;;;;87.68;83.43;;;17.40;99.90;;;;;;5013482;28;20045;-77
2023/08/27 02:51:39;;;;;;;97.70;92.85;;;17.30;99.90;;;;;;5012072;28;20037;-77
2023/08/27 02:54:05;;;;;;;28.50;26.75;;;17.40;99.90;;;;;;5013888;28;20034;-77
2023/08/27 02:56:32;;;;;;;29.88;28.13;;;17.40;99.90;;;;;;5013461;28;20050;-77
2023/08/27 02:58:58;;;;;;;80.68;76.43;;;17.30;99.90;;;;;;5013244;28;20041;-77
2023/08/27 03:01:24;;;;;;;31.00;29.15;;;17.30;99.90;;;;;;5012897;28;20038;-77
2023/08/27 03:03:50;;;;;;;45.15;42.45;;;17.40;99.90;;;;;;5013522;28;20044;-78
2023/08/27 03:06:16;;;;;;;22.38;20.65;;;17.30;99.90;;;;;;5013126;28;20034;-77
2023/08/27 03:08:43;;;;;;;30.08;28.27;;;17.40;99.90;;;;;;5014018;28;20053;-77
2023/08/27 03:11:09;;;;;;;38.22;35.97;;;17.30;99.90;;;;;;5012939;28;20034;-77
2023/08/27 03:13:35;;;;;;;60.95;57.70;;;17.30;99.90;;;;;;5013018;28;20029;-76
2023/08/27 03:16:01;;;;;;;140.02;133.07;;;17.20;99.90;;;;;;5011502;28;20034;-78
2023/08/27 03:18:28;;;;;;;36.50;34.33;;;17.20;99.90;;;;;;5013162;28;20029;-78
2023/08/27 03:20:55;;;;;;;62.28;58.90;;;17.20;99.90;;;;;;5012940;28;20072;-77
2023/08/27 03:23:21;;;;;;;37.40;35.22;;;17.20;99.90;;;;;;5013292;28;20356;-77
2023/08/27 03:25:51;;;;;;;52.30;49.30;;;17.20;99.90;;;;;;5012892;28;20030;-78
2023/08/27 03:28:17;;;;;;;128.90;122.40;;;17.20;99.90;;;;;;5011656;28;20025;-77
2023/08/27 03:30:43;;;;;;;79.40;75.00;;;17.20;99.90;;;;;;5012283;28;20424;-77
2023/08/27 03:33:09;;;;;;;119.75;113.80;;;17.10;99.90;;;;;;5011011;28;20127;-78
2023/08/27 03:35:35;;;;;;;166.25;157.95;;;17.10;99.90;;;;;;5012882;28;20467;-77
2023/08/27 03:38:01;;;;;;;100.30;94.75;;;17.00;99.90;;;;;;5013095;28;20038;-78
2023/08/27 03:40:29;;;;;;;118.38;112.28;;;17.00;99.90;;;;;;5012540;28;20391;-78
2023/08/27 03:42:55;;;;;;;66.60;62.63;;;17.00;99.90;;;;;;5012532;28;20475;-77
2023/08/27 03:45:21;;;;;;;84.80;80.43;;;17.00;99.90;;;;;;5012271;28;20041;-78
2023/08/27 03:47:47;;;;;;;101.63;96.40;;;17.10;99.90;;;;;;5012524;28;20463;-78
2023/08/27 03:50:13;;;;;;;98.65;93.57;;;17.10;99.90;;;;;;5012435;28;20034;-77
2023/08/27 03:52:39;;;;;;;94.63;89.65;;;17.10;99.90;;;;;;5012597;28;20053;-77
2023/08/27 03:55:06;;;;;;;61.10;57.80;;;17.10;99.90;;;;;;5012739;28;20033;-77
2023/08/27 03:57:32;;;;;;;41.95;39.20;;;17.00;99.90;;;;;;5012038;28;20038;-77
2023/08/27 03:59:58;;;;;;;22.05;20.25;;;17.00;99.90;;;;;;5012586;28;20025;-78
2023/08/27 04:02:24;;;;;;;41.50;39.13;;;17.00;99.90;;;;;;5012203;28;20514;-77
2023/08/27 04:04:50;;;;;;;52.40;49.38;;;17.00;99.90;;;;;;5012747;28;20022;-77
2023/08/27 04:07:16;;;;;;;50.47;47.67;;;17.00;99.90;;;;;;5012212;28;20470;-78
2023/08/27 04:09:42;;;;;;;60.92;57.47;;;17.00;99.90;;;;;;5012501;28;20045;-77
2023/08/27 04:12:08;;;;;;;57.72;54.85;;;17.00;99.90;;;;;;5012036;28;20391;-77
2023/08/27 04:14:34;;;;;;;77.13;72.60;;;17.00;99.90;;;;;;5012454;28;20041;-77
2023/08/27 04:17:00;;;;;;;34.60;32.55;;;16.90;99.90;;;;;;5011742;28;20396;-77
2023/08/27 04:19:26;;;;;;;37.35;35.20;;;16.90;99.90;;;;;;5012768;28;20045;-77
2023/08/27 04:21:53;;;;;;;33.13;31.23;;;16.90;99.90;;;;;;5012105;28;20026;-77
2023/08/27 04:24:19;;;;;;;38.08;35.83;;;17.00;99.90;;;;;;5012568;28;20064;-76
2023/08/27 04:26:45;;;;;;;31.10;29.02;;;17.00;99.90;;;;;;5011914;28;20029;-77
2023/08/27 04:29:11;;;;;;;37.60;35.38;;;17.00;99.90;;;;;;5012198;28;20041;-77
2023/08/27 04:31:37;;;;;;;36.58;34.58;;;17.00;99.90;;;;;;5011923;28;20515;-77
2023/08/27 04:34:04;;;;;;;35.92;33.63;;;17.00;99.90;;;;;;5012403;28;20045;-77
2023/08/27 04:36:30;;;;;;;65.43;62.00;;;16.90;99.90;;;;;;5011948;28;20061;-77
2023/08/27 04:38:56;;;;;;;57.38;54.13;;;16.90;99.90;;;;;;5012359;28;20034;-77
2023/08/27 04:41:22;;;;;;;58.67;55.53;;;16.80;99.90;;;;;;5011584;28;20037;-78
2023/08/27 04:43:48;;;;;;;77.03;72.57;;;16.80;99.90;;;;;;5012669;28;20041;-77
2023/08/27 04:46:14;;;;;;;57.28;54.35;;;16.80;99.90;;;;;;5015446;28;20038;-77
2023/08/27 04:48:40;;;;;;;48.60;45.75;;;16.80;99.90;;;;;;5016075;28;20482;-77
2023/08/27 04:51:07;;;;;;;59.97;56.67;;;16.80;99.90;;;;;;5014410;28;20034;-77
2023/08/27 04:53:33;;;;;;;59.80;56.35;;;16.70;99.90;;;;;;5016169;28;20058;-78
2023/08/27 04:55:59;;;;;;;60.67;57.20;;;16.60;99.90;;;;;;5015388;28;20032;-77
2023/08/27 04:58:26;;;;;;;45.85;43.20;;;16.50;99.90;;;;;;5015864;28;20033;-77
2023/08/27 05:00:53;;;;;;;38.35;35.92;;;16.50;99.90;;;;;;5015417;28;20041;-77
2023/08/27 05:03:19;;;;;;;29.65;27.63;;;16.50;99.90;;;;;;5016410;28;20038;-77
2023/08/27 05:05:45;;;;;;;46.08;43.40;;;16.40;99.90;;;;;;5015646;28;20364;-77
2023/08/27 05:08:11;;;;;;;31.60;29.50;;;16.40;99.90;;;;;;5015684;28;20034;-77
2023/08/27 05:10:38;;;;;;;36.28;34.08;;;16.40;99.90;;;;;;5015350;28;20041;-77
2023/08/27 05:13:04;;;;;;;25.88;23.95;;;16.30;99.90;;;;;;5015826;28;20038;-77
2023/08/27 05:15:30;;;;;;;19.85;18.23;;;16.40;99.90;;;;;;5015122;28;20502;-77
2023/08/27 05:17:56;;;;;;;18.13;16.40;;;16.50;99.90;;;;;;5015537;28;20038;-77
2023/08/27 05:20:22;;;;;;;18.20;16.75;;;16.50;99.90;;;;;;5015455;28;20383;-77
2023/08/27 05:22:48;;;;;;;18.25;17.10;;;16.50;99.90;;;;;;5015526;28;20034;-77
2023/08/27 05:25:14;;;;;;;18.48;17.05;;;16.50;99.90;;;;;;5014977;28;20387;-77
2023/08/27 05:27:44;;;;;;;19.25;17.55;;;16.50;99.90;;;;;;5014135;28;20042;-77
2023/08/27 05:30:14;;;;;;;15.90;14.30;;;16.40;99.90;;;;;;5015003;28;20054;-76
2023/08/27 05:32:41;;;;;;;22.92;21.20;;;16.40;99.90;;;;;;5014981;28;20046;-77
2023/08/27 05:35:07;;;;;;;20.10;18.77;;;16.40;99.90;;;;;;5014100;28;20472;-77
2023/08/27 05:37:33;;;;;;;24.50;22.77;;;16.40;99.90;;;;;;5015364;28;20534;-77
2023/08/27 05:39:59;;;;;;;23.85;22.05;;;16.40;99.90;;;;;;5014766;28;20030;-77
2023/08/27 05:42:26;;;;;;;23.38;21.58;;;16.40;99.90;;;;;;5015399;28;20505;-77
2023/08/27 05:44:52;;;;;;;28.67;26.77;;;16.40;99.90;;;;;;5015181;28;20045;-77
2023/08/27 05:47:18;;;;;;;27.88;26.02;;;16.30;99.90;;;;;;5023517;28;20045;-77
2023/08/27 05:49:44;;;;;;;38.13;35.67;;;16.30;99.90;;;;;;5014621;28;20049;-77
2023/08/27 05:52:10;;;;;;;35.20;33.20;;;16.40;99.90;;;;;;5014771;28;20042;-77
2023/08/27 05:54:36;;;;;;;29.85;28.10;;;16.50;99.90;;;;;;5014428;28;20037;-77
2023/08/27 05:57:04;;;;;;;24.38;22.75;;;16.60;99.90;;;;;;5014161;28;20030;-77
2023/08/27 05:59:30;;;;;;;80.60;76.38;;;16.70;99.90;;;;;;5015294;28;20053;-77
2023/08/27 06:01:57;;;;;;;106.53;101.22;;;16.80;99.90;;;;;;5014198;28;20033;-77
2023/08/27 06:04:24;;;;;;;71.43;67.50;;;16.90;99.90;;;;;;5015075;28;20053;-77
2023/08/27 06:06:50;;;;;;;61.95;58.58;;;17.00;99.90;;;;;;5014427;28;20029;-77
2023/08/27 06:09:16;;;;;;;62.25;58.65;;;17.10;99.90;;;;;;5014398;28;20403;-77
2023/08/27 06:11:42;;;;;;;81.00;76.57;;;17.20;99.90;;;;;;5013355;28;20030;-77
2023/08/27 06:14:09;;;;;;;66.53;62.70;;;17.30;99.90;;;;;;5014486;28;20037;-78
2023/08/27 06:16:35;;;;;;;62.90;59.25;;;17.40;99.90;;;;;;5013977;28;20030;-76
2023/08/27 06:19:01;;;;;;;49.75;46.85;;;17.50;99.90;;;;;;5014315;28;20030;-77
2023/08/27 06:21:27;;;;;;;38.13;36.00;;;17.60;99.90;;;;;;5014044;28;20029;-77
2023/08/27 06:23:53;;;;;;;52.33;49.30;;;17.80;99.90;;;;;;5014423;28;20038;-77
2023/08/27 06:26:19;;;;;;;39.28;36.90;;;17.90;99.90;;;;;;5014215;28;20037;-76
2023/08/27 06:28:46;;;;;;;42.10;39.78;;;18.00;99.90;;;;;;5012915;28;20037;-77
2023/08/27 06:31:12;;;;;;;31.17;29.08;;;18.00;99.90;;;;;;5013828;28;20041;-77
2023/08/27 06:33:39;;;;;;;18.27;16.88;;;18.20;99.90;;;;;;5014122;28;20490;-76
2023/08/27 06:36:05;;;;;;;20.95;19.52;;;18.10;99.90;;;;;;5013751;28;20034;-77
2023/08/27 06:38:31;;;;;;;15.00;13.68;;;18.20;99.90;;;;;;5013900;28;20040;-77
2023/08/27 06:40:58;;;;;;;12.48;11.35;;;18.20;99.90;;;;;;5014007;28;20026;-77
2023/08/27 06:43:25;;;;;;;12.02;10.82;;;18.20;99.90;;;;;;5014211;28;20029;-77
2023/08/27 06:45:51;;;;;;;8.15;7.63;;;18.30;99.90;;;;;;5020505;28;20029;-77
2023/08/27 06:48:17;;;;;;;11.93;10.82;;;18.30;99.90;;;;;;5015775;28;20030;-76
2023/08/27 06:50:43;;;;;;;13.75;12.60;;;18.40;99.90;;;;;;5013351;28;20041;-76
2023/08/27 06:53:10;;;;;;;11.98;10.85;;;18.50;99.90;;;;;;5013652;28;20037;-76
2023/08/27 06:55:36;;;;;;;10.57;9.65;;;18.60;99.90;;;;;;5013641;28;20033;-77
2023/08/27 06:58:02;;;;;;;11.25;9.05;;;18.70;99.90;;;;;;5013717;28;20034;-76
2023/08/27 07:00:28;;;;;;;10.73;7.88;;;18.80;99.90;;;;;;5013354;28;20384;-76
2023/08/27 07:02:54;;;;;;;9.68;8.43;;;18.80;99.90;;;;;;5013484;28;20038;-77
2023/08/27 07:05:21;;;;;;;9.00;7.80;;;18.90;99.90;;;;;;5013306;28;20026;-77
2023/08/27 07:07:47;;;;;;;11.55;10.45;;;19.00;99.90;;;;;;5012643;28;20034;-77
2023/08/27 07:10:13;;;;;;;10.10;8.27;;;19.00;99.90;;;;;;5013382;28;20034;-77
2023/08/27 07:12:40;;;;;;;11.93;10.88;;;19.00;99.90;;;;;;5013321;28;20037;-77
2023/08/27 07:15:07;;;;;;;13.60;10.23;;;19.10;99.90;;;;;;5012789;28;20022;-76
2023/08/27 07:17:33;;;;;;;13.35;11.52;;;19.20;99.90;;;;;;5012017;28;20372;-77
2023/08/27 07:20:00;;;;;;;12.95;11.75;;;19.40;99.90;;;;;;5012973;28;20053;-77
2023/08/27 07:22:26;;;;;;;13.90;12.60;;;19.50;99.90;;;;;;5012902;28;20391;-77
2023/08/27 07:24:52;;;;;;;13.60;12.48;;;19.50;99.90;;;;;;5013226;28;20033;-76
2023/08/27 07:27:19;;;;;;;14.52;13.27;;;19.50;99.90;;;;;;5013203;28;20371;-76
2023/08/27 07:29:45;;;;;;;14.65;13.45;;;19.60;99.90;;;;;;5013037;28;20041;-77
2023/08/27 07:32:11;;;;;;;17.92;16.63;;;19.60;99.90;;;;;;5012757;28;20033;-77
2023/08/27 07:34:37;;;;;;;15.07;13.57;;;19.60;99.90;;;;;;5012644;28;20029;-77
2023/08/27 07:37:03;;;;;;;15.73;14.18;;;19.70;99.90;;;;;;5013021;28;20028;-77
2023/08/27 07:39:29;;;;;;;18.90;17.30;;;19.90;99.90;;;;;;5012900;28;20034;-77
2023/08/27 07:41:55;;;;;;;22.67;20.98;;;20.00;99.90;;;;;;5012887;28;20040;-77
2023/08/27 07:44:22;;;;;;;23.80;22.10;;;20.20;99.90;;;;;;5012850;28;20029;-76
2023/08/27 07:46:48;;;;;;;20.10;18.80;;;20.40;99.90;;;;;;5021236;28;20029;-78
2023/08/27 07:49:14;;;;;;;22.70;20.98;;;20.60;99.90;;;;;;5012425;28;20025;-77
2023/08/27 07:51:40;;;;;;;26.67;25.02;;;20.70;99.90;;;;;;5012565;28;20034;-76
2023/08/27 07:54:06;;;;;;;26.42;24.52;;;20.80;99.90;;;;;;5011756;28;20041;-77
2023/08/27 07:56:32;;;;;;;23.77;22.38;;;21.00;99.90;;;;;;5012795;28;20048;-77
2023/08/27 07:58:58;;;;;;;23.30;21.75;;;21.10;99.90;;;;;;5012870;28;20030;-76
2023/08/27 08:01:26;;;;;;;23.40;21.90;;;21.20;99.90;;;;;;5010557;28;20044;-77
2023/08/27 08:03:52;;;;;;;26.05;24.42;;;21.30;99.90;;;;;;5012270;28;20030;-76
2023/08/27 08:06:18;;;;;;;23.10;21.48;;;21.40;99.90;;;;;;5012661;28;20041;-76
2023/08/27 08:08:44;;;;;;;31.23;29.13;;;21.60;99.90;;;;;;5012426;28;20046;-77
2023/08/27 08:11:10;;;;;;;43.95;41.33;;;21.60;99.90;;;;;;5012435;28;20488;-77
2023/08/27 08:13:39;;;;;;;46.00;43.10;;;21.70;99.90;;;;;;5012611;28;20033;-76
2023/08/27 08:16:06;;;;;;;48.22;45.67;;;21.90;99.90;;;;;;5012070;28;20034;-77
2023/08/27 08:18:32;;;;;;;52.25;49.40;;;22.00;99.90;;;;;;5012141;28;20042;-76
2023/08/27 08:20:59;;;;;;;29.98;28.33;;;22.20;99.90;;;;;;5016382;28;20045;-75
2023/08/27 08:23:26;;;;;;;41.05;38.70;;;22.40;99.90;;;;;;5016711;28;20061;-76
2023/08/27 08:25:52;;;;;;;27.35;25.70;;;22.50;99.90;;;;;;5016209;28;20030;-76
2023/08/27 08:28:18;;;;;;;31.33;29.33;;;22.60;99.90;;;;;;5016602;28;20045;-76
2023/08/27 08:30:46;;;;;;;30.77;28.70;;;22.70;99.90;;;;;;5015719;28;20507;-77
2023/08/27 08:33:12;;;;;;;37.17;34.80;;;22.90;99.90;;;;;;5015854;28;20030;-76
2023/08/27 08:35:39;;;;;;;34.25;31.95;;;23.00;99.90;;;;;;5016078;28;20459;-75
2023/08/27 08:38:05;;;;;;;56.88;53.53;;;23.10;99.90;;;;;;5016281;28;20045;-76
2023/08/27 08:40:32;;;;;;;55.20;52.13;;;23.20;99.90;;;;;;5014643;28;20475;-76
2023/08/27 08:42:59;;;;;;;126.50;120.13;;;23.30;99.90;;;;;;5014889;28;20518;-76
2023/08/27 08:45:32;;;;;;;78.15;73.97;;;23.30;99.90;;;;;;5015826;28;20041;-76
2023/08/27 08:47:59;;;;;;;103.78;98.57;;;23.40;99.90;;;;;;5014490;28;20033;-76
2023/08/27 08:50:25;;;;;;;123.65;117.30;;;23.50;99.90;;;;;;5014318;28;20049;-75
2023/08/27 08:52:51;;;;;;;121.50;115.43;;;23.50;99.90;;;;;;5014610;28;20560;-76
2023/08/27 08:55:18;;;;;;;110.95;105.47;;;23.60;99.90;;;;;;5014495;28;20038;-75
2023/08/27 08:57:51;;;;;;;116.20;110.43;;;23.60;99.90;;;;;;5014699;28;20026;-76
2023/08/27 09:00:17;;;;;;;142.27;135.20;;;23.50;99.90;;;;;;5013770;28;20029;-76
2023/08/27 09:02:43;;;;;;;143.70;136.63;;;23.50;99.90;;;;;;5013917;28;20034;-76
2023/08/27 09:05:10;;;;;;;188.05;179.05;;;23.60;99.90;;;;;;5014594;28;20041;-76
2023/08/27 09:07:38;;;;;;;237.15;226.10;;;23.80;99.90;;;;;;4996028;28;20047;-76
2023/08/27 09:10:04;;;;;;;151.30;143.85;;;23.80;99.90;;;;;;4996372;28;20070;-75
2023/08/27 09:12:30;;;;;;;241.77;230.10;;;23.90;99.90;;;;;;5013572;28;20400;-76
2023/08/27 09:14:57;;;;;;;246.10;234.40;;;24.00;99.90;;;;;;5014226;28;20030;-76
2023/08/27 09:17:23;;;;;;;266.77;253.88;;;23.90;99.90;;;;;;5013200;28;20034;-76
2023/08/27 09:19:51;;;;;;;259.00;246.80;;;23.90;99.90;;;;;;5015425;28;20026;-76
2023/08/27 09:22:18;;;;;;;234.35;223.20;;;23.70;99.90;;;;;;5013925;28;20050;-75
2023/08/27 09:24:45;;;;;;;234.35;223.07;;;23.50;99.90;;;;;;5014189;28;20026;-76
2023/08/27 09:27:12;;;;;;;238.45;227.25;;;23.40;99.90;;;;;;5013883;28;20030;-76
2023/08/27 09:29:39;;;;;;;213.18;203.32;;;23.10;99.90;;;;;;5015258;28;20037;-76
2023/08/27 09:32:05;;;;;;;231.30;220.35;;;22.80;99.90;;;;;;5012992;28;20041;-76
2023/08/27 09:34:38;;;;;;;227.65;217.15;;;22.60;99.90;;;;;;5015290;28;20022;-75
2023/08/27 09:37:06;;;;;;;249.02;237.32;;;22.60;99.90;;;;;;5014990;28;20042;-76
2023/08/27 09:39:32;;;;;;;256.40;244.52;;;22.90;99.90;;;;;;5013382;28;20037;-76
2023/08/27 09:41:58;;;;;;;261.52;249.20;;;23.00;99.90;;;;;;5015040;28;20041;-77
2023/08/27 09:44:27;;;;;;;281.23;267.92;;;23.00;99.90;;;;;;5014808;28;20462;-76
2023/08/27 09:46:59;;;;;;;258.35;246.45;;;23.00;99.90;;;;;;5012612;28;20037;-76
2023/08/27 09:49:26;;;;;;;265.27;252.88;;;22.80;99.90;;;;;;4998080;28;20057;-76
2023/08/27 09:51:55;;;;;;;198.75;189.25;;;22.70;99.90;;;;;;5013241;28;20034;-77
2023/08/27 09:54:21;;;;;;;223.18;212.63;;;22.70;99.90;;;;;;5013725;28;20044;-76
2023/08/27 09:56:48;;;;;;;248.30;236.80;;;22.80;99.90;;;;;;5014695;28;20117;-75
2023/08/27 09:59:18;;;;;;;260.70;248.57;;;22.70;99.90;;;;;;5014263;28;20022;-76
2023/08/27 10:01:48;;;;;;;285.77;272.52;;;22.80;99.90;;;;;;5014035;28;20035;-76
2023/08/27 10:04:14;;;;;;;270.00;257.50;;;22.80;99.90;;;;;;5014667;28;20034;-76
2023/08/27 10:06:40;;;;;;;298.17;284.23;;;22.80;99.90;;;;;;5014128;28;20033;-76
2023/08/27 10:09:07;;;;;;;234.82;223.98;;;22.70;99.90;;;;;;5013158;28;20403;-76
2023/08/27 10:11:33;;;;;;;215.55;205.27;;;22.90;99.90;;;;;;5014275;28;20037;-76
2023/08/27 10:14:00;;;;;;;203.43;193.63;;;23.10;99.90;;;;;;5012890;28;20037;-76
2023/08/27 10:16:27;;;;;;;230.30;219.50;;;23.20;99.90;;;;;;5013740;28;20105;-76
2023/08/27 10:18:53;;;;;;;251.60;239.80;;;23.30;99.90;;;;;;5013307;28;20033;-76
2023/08/27 10:21:19;;;;;;;257.05;245.00;;;23.20;99.90;;;;;;5012901;28;20022;-76
2023/08/27 10:23:46;;;;;;;296.67;282.90;;;23.20;99.90;;;;;;5013040;28;20037;-76
2023/08/27 10:26:12;;;;;;;250.23;238.45;;;23.20;99.90;;;;;;5012837;28;20034;-75
2023/08/27 10:28:38;;;;;;;255.38;243.15;;;23.20;99.90;;;;;;5012611;28;20467;-76
2023/08/27 10:31:05;;;;;;;271.02;258.25;;;23.30;99.90;;;;;;5011910;28;20061;-76
2023/08/27 10:33:31;;;;;;;240.32;228.77;;;23.40;99.90;;;;;;5014696;28;20041;-76
2023/08/27 10:36:23;;;;;;;266.17;253.45;;;23.50;99.90;;;;;;5013831;28;20040;-75
2023/08/27 10:38:49;;;;;;;225.50;214.90;;;23.50;99.90;;;;;;5009353;28;20041;-76
2023/08/27 10:41:22;;;;;;;212.70;202.48;;;23.70;99.90;;;;;;5012495;28;20034;-76
2023/08/27 10:43:48;;;;;;;217.80;207.20;;;23.80;99.90;;;;;;5012279;28;20029;-76
2023/08/27 10:46:17;;;;;;;236.13;224.95;;;23.70;99.90;;;;;;5013256;28;20065;-76
2023/08/27 10:48:53;;;;;;;153.27;145.70;;;23.60;99.90;;;;;;5012524;28;20038;-76
2023/08/27 10:51:23;;;;;;;205.52;195.88;;;23.50;99.90;;;;;;5013290;28;20356;-76
2023/08/27 10:53:49;;;;;;;213.18;203.00;;;23.30;99.90;;;;;;5013934;28;20499;-77
2023/08/27 10:56:38;;;;;;;207.80;197.93;;;23.30;99.90;;;;;;5013359;28;20387;-76
2023/08/27 10:59:27;;;;;;;215.52;205.43;;;23.30;99.90;;;;;;5013410;28;20045;-76
2023/08/27 11:01:53;;;;;;;234.23;223.30;;;23.20;99.90;;;;;;5011751;28;20046;-76
2023/08/27 11:04:19;;;;;;;199.50;189.88;;;23.10;99.90;;;;;;5013450;28;20045;-76
2023/08/27 11:06:46;;;;;;;234.25;223.25;;;23.20;99.90;;;;;;5013301;28;20042;-76
2023/08/27 11:09:24;;;;;;;172.60;164.20;;;23.20;99.90;;;;;;5013399;28;20379;-75
2023/08/27 11:11:51;;;;;;;186.50;177.55;;;23.30;99.90;;;;;;5012792;28;20046;-75
2023/08/27 11:14:18;;;;;;;149.65;142.43;;;23.60;99.90;;;;;;5013084;28;20037;-76
2023/08/27 11:16:45;;;;;;;154.10;146.63;;;23.80;99.90;;;;;;5012723;28;20046;-76
2023/08/27 11:19:11;;;;;;;185.40;176.45;;;23.90;99.90;;;;;;5012848;28;20483;-76
2023/08/27 11:21:37;;;;;;;152.73;145.35;;;23.90;99.90;;;;;;5012862;28;20116;-75
2023/08/27 11:24:21;;;;;;;160.48;152.70;;;23.80;99.80;;;;;;5013150;28;20067;-76
2023/08/27 11:26:50;;;;;;;165.93;157.88;;;23.90;99.60;;;;;;5012759;28;20049;-75
2023/08/27 11:29:16;;;;;;;180.68;171.88;;;24.00;99.30;;;;;;5012900;28;20038;-75
2023/08/27 11:31:44;;;;;;;220.43;209.90;;;24.10;99.00;;;;;;5011012;28;20042;-76
2023/08/27 11:34:11;;;;;;;187.23;177.90;;;24.20;98.60;;;;;;5013011;28;20033;-76
2023/08/27 11:36:44;;;;;;;179.57;170.98;;;24.20;98.40;;;;;;5013133;28;20061;-76
2023/08/27 11:39:17;;;;;;;201.52;191.75;;;24.20;98.70;;;;;;5013285;28;20041;-76
2023/08/27 11:41:44;;;;;;;175.90;167.32;;;24.20;99.00;;;;;;5012272;28;20479;-76
2023/08/27 11:44:10;;;;;;;176.32;167.48;;;24.10;98.50;;;;;;5011854;28;20041;-77
2023/08/27 11:46:37;;;;;;;190.80;181.48;;;24.10;98.20;;;;;;5012118;28;20511;-76
2023/08/27 11:49:04;;;;;;;201.73;191.82;;;24.10;98.50;;;;;;5012789;28;20474;-76
2023/08/27 11:51:31;;;;;;;204.52;194.52;;;24.20;99.10;;;;;;5012473;28;20058;-76
2023/08/27 11:53:57;;;;;;;189.13;180.02;;;24.30;99.20;;;;;;5010932;28;20049;-76
2023/08/27 11:56:23;;;;;;;188.57;179.35;;;24.40;98.90;;;;;;5011018;28;20038;-75
2023/08/27 11:58:51;;;;;;;185.27;176.13;;;24.50;99.00;;;;;;5011751;28;20466;-76
2023/08/27 12:01:19;;;;;;;176.13;167.40;;;24.60;98.70;;;;;;5011840;28;20048;-77
2023/08/27 12:03:46;;;;;;;187.63;178.55;;;24.60;97.60;;;;;;5012483;28;20460;-76
2023/08/27 12:06:17;;;;;;;197.63;188.20;;;24.60;97.80;;;;;;5011416;28;20033;-76
2023/08/27 12:08:48;;;;;;;206.10;195.82;;;24.60;97.80;;;;;;5012948;28;20402;-77
2023/08/27 12:11:16;;;;;;;196.55;186.73;;;24.50;97.30;;;;;;5012322;28;20060;-77
2023/08/27 12:13:53;;;;;;;184.77;175.85;;;24.40;97.80;;;;;;5011277;28;20034;-76
2023/08/27 12:16:29;;;;;;;202.50;192.60;;;24.50;97.90;;;;;;5011708;28;20037;-77
2023/08/27 12:19:03;;;;;;;201.18;191.60;;;24.60;98.00;;;;;;5012636;28;20483;-76
2023/08/27 12:21:34;;;;;;;186.25;177.43;;;24.60;97.50;;;;;;5012215;28;20106;-76